Details From TFFF - Le Lamentin
To TLPC - Castries - George F L Charles (vigie)
Flight Number -
Tags Novice Generated
Created
Modified
Stats Distance 43 nm / 79 km
Max Altitude 100 ft / 30 m
Waypoints 5
Social Downloads 1
Likes 0
Share VATSIM

Download

Looking for another format? Having issues loading an existing format? Contact us
Advertisement - Login to hide

Notes

Departing runway 09 TFFF. Arriving runway 09 TLPC.

Route

TFFF +14.61_-060.91 +14.32_-060.91 +14.04_-060.91 TLPC

ID Type Via Altitude Latitude Longitude Leg Dist Tot Dist Heading (true) Name
O TFFF APT - 0 ft / 0 m 14.59363˚ -60.98804˚ - 0 nm - -
+14.61_-060.91 LATLON - 100 ft / 30 m 14.60627˚ -60.91440˚ 4 nm 4 nm 80° / 80° -
+14.32_-060.91 LATLON - 100 ft / 30 m 14.32313˚ -60.91390˚ 17 nm 21 nm 180° / 180° -
+14.04_-060.91 LATLON - 100 ft / 30 m 14.03999˚ -60.91340˚ 17 nm 38 nm 180° / 180° -
O TLPC APT - 0 ft / 0 m 14.02169˚ -60.98556˚ 4 nm 42 nm 255° / 255° Castries/George F L Charles

Altitude Profile

Advertisement - Login to hide

TFFF

Details ICAO TFFF (FDF)
Name Martinique/Aime Cesaire Intl
Region France (Guadeloupe, Martinique, Saint Barthélemy, Saint Martin)
Timezone America/Martinique (UTC-4.0)
Stats Elevation 16 ft / 5 m (AMSL)
Location 14.591032° -61.003173°
Runways 1
Magnetic Variation 15.072° W

METAR

TFFF 242200Z AUTO 10011KT 9999 FEW023 SCT029 BKN041 27/22 Q1015 NOSIG

Decode

TAF

TAF TFFF 241600Z 2418/2518 10012KT 9999 SCT025 BKN040 TEMPO 2418/2421 4000 SHRA SCT018TCU TEMPO 2503/2512 4000 SHRA SCT020TCU

Decode

Departure Runways

ID Width Length Bearing (true) Bearing (mag) Surface Threshold Offset Overrun Length
09 148 ft / 45 m 9,852 ft / 3,003 m 79.93° 95.00° Asphalt 0 ft / 0 m 0 ft / 0 m
27 148 ft / 45 m 9,852 ft / 3,003 m 259.94° 275.01° Asphalt 820 ft / 250 m 948 ft / 289 m

TLPC

Details ICAO TLPC (SLU)
Name Castries/George F L Charles
Region Saint Lucia
Timezone America/St_Lucia (UTC-4.0)
Stats Elevation 22 ft / 7 m (AMSL)
Location 14.019704° -60.993394°
Runways 1
Magnetic Variation 15.087° W

METAR

TLPC 242200Z 11008KT 9999 SCT025 28/23 Q1015 NOSIG

Decode

TAF

TLPC 241700Z 2418/2518 10013KT 9999 SCT025

Decode

Destination Runways

ID Width Length Bearing (true) Bearing (mag) Surface Threshold Offset Overrun Length
09 148 ft / 45 m 5,731 ft / 1,747 m 75.34° 90.43° Asphalt 400 ft / 122 m 0 ft / 0 m
27 148 ft / 45 m 5,731 ft / 1,747 m 255.34° 270.43° Asphalt 925 ft / 282 m 0 ft / 0 m

Popular Alternatives